Dennisville, New Jersey
Current Conditions -  °F | °C
As of 4:15 AM on Monday 24 Nov 2014 (Local Time) from KWWD Reporting Station
Overcast Overcast  
Wind Chill: 61°   Ceiling: 400
Heat Index: 61°   Visibility: 5mi
Dew Point: 55°   Wind: 20mph
Humidity: 82%   Direction: 160°SSE
Pressure: 29.73"   Gusts: 31mph
Location:  39.19°N, 74.82°W
Report Text: KWWD 240915Z AUTO 16017G27KT 5SM OVC004 16/13 A2973 RMK AO1
Loading
Personal Weather Stations






























Interactive Weather Map New forecast layout! Learn more

10-Day Weather Forecast

Advertisements
Track Severe Weather on mobile